Time;durP1;ratioP1;P1;durP2;ratioP2;P2;SDS_P1;SDS_P2;PMS_P1;PMS_P2;Temp;Humidity;BMP_temperature;BMP_pressure;BME280_temperature;BME280_humidity;BME280_pressure;Samples;Min_cycle;Max_cycle;Signal;HPM_P1;HPM_P2
2022/10/03 00:01:30;;;;;;;1.23;1.20;;;;;;;13.78;100.00;149502.13;5093061;28;20654;-65
2022/10/03 00:04:16;;;;;;;1.50;1.40;;;;;;;13.91;100.00;149533.81;5078251;28;20198;-65
2022/10/03 00:06:57;;;;;;;1.40;1.40;;;;;;;13.97;100.00;149548.97;5095314;28;20184;-64
2022/10/03 00:09:40;;;;;;;6.43;1.70;;;;;;;14.10;100.00;149583.22;5094999;28;20190;-65
2022/10/03 00:12:20;;;;;;;1.97;1.47;;;;;;;14.13;100.00;149590.81;5095466;28;20184;-64
2022/10/03 00:14:56;;;;;;;1.20;1.20;;;;;;;14.11;100.00;149585.78;5094935;28;20184;-65
2022/10/03 00:17:30;;;;;;;5.03;1.20;;;;;;;14.14;100.00;149593.34;5095294;28;20575;-65
2022/10/03 00:20:06;;;;;;;3.17;1.20;;;;;;;14.12;100.00;149588.31;5094605;28;20621;-65
2022/10/03 00:22:43;;;;;;;1.43;1.27;;;;;;;14.19;100.00;149606.03;5095022;28;20302;-64
2022/10/03 00:25:27;;;;;;;1.90;1.00;;;;;;;14.02;100.00;149561.66;5094811;28;20257;-64
2022/10/03 00:28:06;;;;;;;6.30;1.50;;;;;;;14.12;100.00;149588.31;5094606;28;20188;-65
2022/10/03 00:30:53;;;;;;;1.53;1.10;;;;;;;14.03;100.00;149565.50;5094923;28;20592;-64
2022/10/03 00:33:30;;;;;;;1.73;1.63;;;;;;;14.05;100.00;149569.25;5094934;28;20184;-65
2022/10/03 00:36:07;;;;;;;4.80;1.43;;;;;;;14.04;100.00;149566.75;5094420;28;20194;-65
2022/10/03 00:38:54;;;;;;;5.17;1.70;;;;;;;14.01;100.00;149560.41;5094719;28;20184;-64
2022/10/03 00:41:39;;;;;;;2.90;1.37;;;;;;;13.82;100.00;149512.25;5094897;28;20688;-64
2022/10/03 00:44:51;;;;;;;1.30;1.20;;;;;;;13.96;100.00;149546.50;5094427;28;20212;-64
2022/10/03 00:47:36;;;;;;;5.93;1.50;;;;;;;13.88;100.00;149527.44;5019630;28;20733;-65
2022/10/03 00:50:41;;;;;;;3.80;1.53;;;;;;;13.87;100.00;149524.94;5094207;28;20184;-64
2022/10/03 00:53:27;;;;;;;1.10;1.00;;;;;;;13.74;100.00;149492.00;5075523;28;20196;-64
2022/10/03 00:56:14;;;;;;;2.97;1.20;;;;;;;13.61;100.00;149460.31;5094351;28;20206;-65
2022/10/03 00:58:55;;;;;;;1.90;0.97;;;;;;;13.40;100.00;149405.81;5094384;28;20312;-65
2022/10/03 01:01:34;;;;;;;1.40;1.30;;;;;;;13.60;100.00;149456.50;5094498;28;20191;-65
2022/10/03 01:04:43;;;;;;;3.53;1.20;;;;;;;13.61;100.00;149459.03;5094378;28;20245;-64
2022/10/03 01:07:30;;;;;;;1.47;1.20;;;;;;;13.61;100.00;149459.03;5094230;28;20748;-65
2022/10/03 01:10:12;;;;;;;1.00;1.00;;;;;;;13.77;100.00;149498.31;5094073;28;20195;-65
2022/10/03 01:13:02;;;;;;;1.40;1.30;;;;;;;13.90;100.00;149532.53;5093447;28;20275;-65
2022/10/03 01:15:42;;;;;;;2.07;1.20;;;;;;;13.97;100.00;149550.25;5094018;28;20184;-64
2022/10/03 01:18:24;;;;;;;2.33;1.10;;;;;;;13.93;100.00;149538.84;5093570;28;20279;-64
2022/10/03 01:21:00;;;;;;;1.20;1.20;;;;;;;14.11;100.00;149584.50;5093983;28;20653;-65
2022/10/03 01:24:05;;;;;;;4.20;1.27;;;;;;;13.98;100.00;149552.81;5093802;28;20229;-65
2022/10/03 01:26:53;;;;;;;2.40;1.07;;;;;;;14.03;100.00;149564.22;5093537;28;20196;-64
2022/10/03 01:32:17;;;;;;;1.70;1.60;;;;;;;13.89;100.00;149528.72;5093464;28;20183;-64
2022/10/03 01:34:51;;;;;;;1.50;1.30;;;;;;;13.73;100.00;149490.72;5093599;28;20200;-64
2022/10/03 01:37:28;;;;;;;4.33;1.30;;;;;;;13.33;100.00;149388.06;5093356;28;20192;-65
2022/10/03 01:40:03;;;;;;;2.13;1.90;;;;;;;13.42;100.00;149412.13;5093213;28;20180;-65
2022/10/03 01:42:39;;;;;;;2.83;1.60;;;;;;;13.50;100.00;149431.13;5093452;28;20204;-65
2022/10/03 01:45:22;;;;;;;1.87;1.77;;;;;;;13.27;100.00;149374.16;5093087;28;20287;-64
2022/10/03 01:47:55;;;;;;;1.40;1.30;;;;;;;13.07;100.00;149324.69;5093266;28;20184;-64
2022/10/03 01:50:30;;;;;;;2.23;1.57;;;;;;;12.75;100.00;146407.06;5093571;28;20210;-65
2022/10/03 01:53:04;;;;;;;4.13;1.33;;;;;;;12.78;100.00;123225.28;5075567;28;20180;-63
2022/10/03 01:55:40;;;;;;;2.03;1.40;;;;;;;12.44;100.00;91068.13;5093311;28;20246;-64
2022/10/03 01:58:12;;;;;;;1.70;1.27;;;;;;;12.73;100.00;83873.44;5092871;28;20195;-64
2022/10/03 02:00:48;;;;;;;2.47;1.47;;;;;;;12.78;100.00;83223.16;5093058;28;20180;-64
2022/10/03 02:03:23;;;;;;;2.10;1.30;;;;;;;12.79;100.00;88816.34;5092913;28;20204;-65
2022/10/03 02:05:57;;;;;;;1.27;1.20;;;;;;;12.91;100.00;96746.78;5092997;28;20184;-64
2022/10/03 02:08:32;;;;;;;3.30;1.43;;;;;;;13.04;100.00;97758.72;5093202;28;20783;-64
2022/10/03 02:11:03;;;;;;;2.00;1.40;;;;;;;13.14;100.00;100749.16;5092875;28;20187;-65
2022/10/03 02:13:41;;;;;;;4.57;1.33;;;;;;;13.28;100.00;109379.38;5092655;28;20186;-65
2022/10/03 02:16:15;;;;;;;1.60;0.97;;;;;;;13.33;100.00;113368.59;5074552;28;20192;-65
2022/10/03 02:18:47;;;;;;;2.07;1.43;;;;;;;13.44;100.00;127023.66;5092682;28;20226;-64
2022/10/03 02:21:19;;;;;;;2.27;1.60;;;;;;;13.45;100.00;140487.47;5092541;28;20192;-63
2022/10/03 02:23:47;;;;;;;3.07;1.20;;;;;;;13.48;100.00;147054.63;5091806;28;20204;-64
2022/10/03 02:26:50;;;;;;;1.70;1.33;;;;;;;13.31;100.00;145667.22;5092800;28;20558;-64
2022/10/03 02:29:51;;;;;;;1.30;1.20;;;;;;;13.39;100.00;125014.38;5092689;28;20194;-64
2022/10/03 02:32:54;;;;;;;2.70;1.30;;;;;;;13.42;100.00;120362.84;5092370;28;20180;-64
2022/10/03 02:35:50;;;;;;;1.37;1.27;;;;;;;13.43;100.00;118701.44;5092618;28;20283;-64
2022/10/03 02:38:49;;;;;;;2.90;1.10;;;;;;;13.36;100.00;127673.88;5092592;28;20672;-64
2022/10/03 02:41:48;;;;;;;1.70;1.60;;;;;;;13.24;100.00;126982.66;5092358;28;20188;-64
2022/10/03 02:44:35;;;;;;;1.90;1.80;;;;;;;13.26;100.00;111697.41;5092635;28;20690;-64
2022/10/03 02:47:49;;;;;;;1.17;1.07;;;;;;;13.21;100.00;118990.41;5092229;28;20187;-64
2022/10/03 02:50:48;;;;;;;1.27;1.27;;;;;;;12.99;100.00;123933.44;5092051;28;20180;-64
2022/10/03 02:53:47;;;;;;;1.73;1.40;;;;;;;12.80;100.00;114925.69;5092198;28;20215;-65
2022/10/03 02:56:52;;;;;;;2.97;1.50;;;;;;;13.05;100.00;112320.66;5092217;28;20275;-66
2022/10/03 02:59:42;;;;;;;1.40;1.30;;;;;;;13.13;100.00;118641.97;5092430;28;20624;-65
2022/10/03 03:02:34;;;;;;;2.37;1.33;;;;;;;12.82;100.00;118912.56;5091730;28;20195;-65
2022/10/03 03:05:25;;;;;;;2.23;1.50;;;;;;;12.90;100.00;114280.78;5091892;28;20188;-64
2022/10/03 03:08:37;;;;;;;2.10;1.40;;;;;;;12.63;100.00;100991.97;5092133;28;20696;-64
2022/10/03 03:11:40;;;;;;;3.83;1.80;;;;;;;12.49;100.00;91075.09;5044166;28;20203;-64
2022/10/03 03:14:43;;;;;;;1.87;1.43;;;;;;;12.38;100.00;87439.16;5072713;28;20199;-64
2022/10/03 03:17:24;;;;;;;1.90;1.57;;;;;;;12.35;100.00;79222.69;5091674;28;20183;-64
2022/10/03 03:20:14;;;;;;;2.77;1.93;;;;;;;12.24;100.00;76256.78;5091629;28;20582;-64
2022/10/03 03:22:58;;;;;;;2.00;1.80;;;;;;;12.01;100.00;70007.59;5091646;28;20204;-64
2022/10/03 03:25:39;;;;;;;1.73;1.50;;;;;;;12.22;100.00;66436.78;5091685;28;20732;-64
2022/10/03 03:28:25;;;;;;;8.17;1.90;;;;;;;12.30;100.00;64484.91;5091492;28;20184;-64
2022/10/03 03:31:01;;;;;;;3.40;1.87;;;;;;;12.38;100.00;65147.25;5091724;28;20183;-65
2022/10/03 03:33:37;;;;;;;3.40;1.67;;;;;;;12.42;100.00;71038.84;5091721;28;20643;-64
2022/10/03 03:36:16;;;;;;;4.43;2.10;;;;;;;12.20;100.00;65127.03;5094988;28;20300;-65
2022/10/03 03:38:52;;;;;;;4.63;1.97;;;;;;;12.12;100.00;66425.34;5095622;28;20184;-64
2022/10/03 03:41:37;;;;;;;1.97;1.83;;;;;;;12.32;100.00;69390.56;5095546;28;20183;-64
2022/10/03 03:44:28;;;;;;;2.90;2.53;;;;;;;12.29;100.00;69387.59;5095462;28;20211;-64
2022/10/03 03:47:13;;;;;;;3.13;2.70;;;;;;;12.48;100.00;71046.16;5095850;28;20190;-65
2022/10/03 03:49:57;;;;;;;3.10;2.73;;;;;;;12.19;100.00;67740.72;5095721;28;20690;-64
2022/10/03 03:52:42;;;;;;;3.83;3.03;;;;;;;12.27;100.00;65461.59;5095523;28;20600;-64
2022/10/03 03:55:28;;;;;;;6.73;3.23;;;;;;;12.32;100.00;66447.66;5095581;28;20574;-65
2022/10/03 03:58:17;;;;;;;4.20;3.90;;;;;;;12.41;100.00;70383.00;5095128;28;20184;-64
2022/10/03 04:01:16;;;;;;;4.80;3.50;;;;;;;12.53;100.00;75310.50;5095457;28;20604;-65
2022/10/03 04:03:53;;;;;;;14.20;3.60;;;;;;;12.48;100.00;68754.69;5070181;28;20220;-64
2022/10/03 04:06:36;;;;;;;13.53;5.10;;;;;;;12.15;100.00;67082.38;5095333;28;20270;-64
2022/10/03 04:09:27;;;;;;;8.17;4.73;;;;;;;12.07;100.00;60543.78;5095322;28;20643;-64
2022/10/03 04:12:08;;;;;;;6.43;4.80;;;;;;;12.23;100.00;61865.75;5095407;28;20557;-64
2022/10/03 04:15:10;;;;;;;10.30;5.47;;;;;;;12.08;100.00;55004.66;5094960;28;20180;-64
2022/10/03 04:20:57;;;;;;;11.10;7.00;;;;;;;12.10;100.00;56635.13;5094960;28;20228;-64
2022/10/03 04:23:45;;;;;;;17.43;6.17;;;;;;;12.16;100.00;59574.75;5094653;28;20203;-64
2022/10/03 04:26:26;;;;;;;9.67;5.97;;;;;;;12.24;100.00;59256.34;5094713;28;20191;-65
2022/10/03 04:29:31;;;;;;;9.47;5.47;;;;;;;12.38;100.00;63186.72;5094552;28;20184;-64
2022/10/03 04:32:09;;;;;;;7.73;4.90;;;;;;;12.51;100.00;70394.50;5091077;28;20708;-65
2022/10/03 04:34:50;;;;;;;7.53;4.73;;;;;;;12.57;100.00;74660.06;5094856;28;20245;-64
2022/10/03 04:37:32;;;;;;;10.60;5.70;;;;;;;12.53;100.00;73017.25;5095045;28;20188;-64
2022/10/03 04:40:17;;;;;;;8.13;4.87;;;;;;;12.67;100.00;76312.38;5094556;28;20194;-64
2022/10/03 04:42:55;;;;;;;15.27;5.53;;;;;;;12.84;100.00;78960.19;5094331;28;20184;-64
2022/10/03 04:45:39;;;;;;;6.33;4.70;;;;;;;13.30;100.00;90540.13;5094304;28;20223;-64
2022/10/03 04:48:16;;;;;;;6.60;4.03;;;;;;;14.22;100.00;149611.09;5093960;28;20654;-66
2022/10/03 04:50:59;;;;;;;8.70;4.40;;;;;;;14.90;100.00;149783.59;5094561;28;20187;-64
2022/10/03 04:53:41;;;;;;;11.20;5.33;;;;;;;15.99;100.00;150056.47;5094532;28;20256;-65
2022/10/03 04:56:24;;;;;;;7.07;4.57;;;;;;;16.60;100.00;150210.13;5094492;28;20554;-65
2022/10/03 04:58:56;;;;;;;7.93;4.00;;;;;;;17.10;100.00;150334.63;5094343;28;20184;-65
2022/10/03 05:01:28;;;;;;;4.40;4.10;;;;;;;17.58;100.00;150455.34;5095122;28;20546;-65
2022/10/03 05:04:09;;;;;;;5.00;3.50;;;;;;;17.97;100.00;150553.22;5094355;28;20674;-66
2022/10/03 05:06:51;;;;;;;6.87;3.10;;;;;;;18.14;100.00;150596.47;5080967;28;20197;-66
2022/10/03 05:09:31;;;;;;;5.70;3.63;;;;;;;18.27;100.00;150629.53;5072493;28;20666;-56
2022/10/03 05:12:06;;;;;;;6.60;4.43;;;;;;;18.85;100.00;150775.81;5066435;28;20301;-55
2022/10/03 05:14:49;;;;;;;8.00;4.00;;;;;;;19.46;100.00;150929.81;5073507;28;20176;-55
2022/10/03 05:17:22;;;;;;;8.70;3.93;;;;;;;19.75;100.00;151001.09;5073489;28;20665;-57
2022/10/03 05:20:24;;;;;;;11.37;4.37;;;;;;;19.83;100.00;151022.72;5055991;28;20311;-64
2022/10/03 05:23:02;;;;;;;5.80;3.70;;;;;;;18.73;100.00;150745.28;5070802;28;20215;-66
2022/10/03 05:25:43;;;;;;;4.97;4.73;;;;;;;17.70;100.00;150487.13;5073414;28;20239;-65
2022/10/03 05:28:22;;;;;;;6.43;4.13;;;;;;;17.31;100.00;150388.00;5073470;28;20180;-67
2022/10/03 05:30:53;;;;;;;6.43;4.60;;;;;;;17.07;100.00;150326.97;5073304;28;20185;-67
2022/10/03 05:33:33;;;;;;;6.27;4.43;;;;;;;16.90;100.00;150285.06;5073099;28;20185;-66
2022/10/03 05:36:11;;;;;;;6.03;3.03;;;;;;;16.86;100.00;150276.19;5073091;28;20188;-65
2022/10/03 05:39:13;;;;;;;4.63;3.17;;;;;;;17.15;100.00;150347.28;5055200;28;20192;-66
2022/10/03 05:41:50;;;;;;;3.47;3.17;;;;;;;17.48;100.00;150431.19;5064304;28;20300;-67
2022/10/03 05:44:20;;;;;;;3.70;2.60;;;;;;;17.67;100.00;150479.50;5072808;28;20215;-67
2022/10/03 05:47:00;;;;;;;3.00;2.57;;;;;;;17.93;100.00;150543.06;5073172;28;20657;-67
2022/10/03 05:49:44;;;;;;;3.37;2.23;;;;;;;18.45;100.00;150674.03;5072978;28;20184;-67
2022/10/03 05:52:42;;;;;;;10.37;3.40;;;;;;;19.13;100.00;150845.81;5072871;28;20189;-67
2022/10/03 05:55:35;;;;;;;6.67;3.13;;;;;;;19.76;100.00;151003.66;5068337;28;20196;-68
2022/10/03 05:58:31;;;;;;;4.53;2.53;;;;;;;20.23;100.00;151122.03;5072093;28;20185;-67
2022/10/03 06:01:35;;;;;;;4.57;2.77;;;;;;;21.14;100.00;151352.66;5072367;28;20197;-66
2022/10/03 06:04:43;;;;;;;7.85;3.13;;;;;;;20.85;100.00;151278.72;5072583;28;20255;-68
2022/10/03 06:07:21;;;;;;;2.25;2.15;;;;;;;21.25;100.00;151379.44;5037205;28;20198;-67
2022/10/03 06:10:08;;;;;;;4.13;2.43;;;;;;;21.64;100.00;151477.56;5052608;28;20670;-69
2022/10/03 06:12:45;;;;;;;2.53;2.33;;;;;;;22.14;100.00;151605.09;5053347;28;20186;-67
2022/10/03 06:15:37;;;;;;;5.95;2.38;;;;;;;22.63;96.71;151727.50;5052455;28;20187;-67
2022/10/03 06:18:23;;;;;;;11.23;3.58;;;;;;;22.85;94.71;151783.66;5052780;28;20182;-67
2022/10/03 06:21:39;;;;;;;4.00;3.42;;;;;;;22.78;94.96;151765.81;5130489;27;20540;-68
2022/10/03 06:24:34;;;;;;;9.75;3.88;;;;;;;23.11;92.06;151850.00;5129937;27;20190;-67
2022/10/03 06:27:40;;;;;;;2.72;2.45;;;;;;;23.03;88.45;151828.31;5128081;28;20281;-66
2022/10/03 06:30:21;;;;;;;2.15;1.17;;;;;;;23.36;86.37;151911.25;5129793;27;20183;-68
2022/10/03 06:33:39;;;;;;;1.30;1.00;;;;;;;24.09;80.32;152096.38;5124956;27;20214;-66
2022/10/03 06:36:36;;;;;;;3.55;1.42;;;;;;;23.98;81.36;152069.53;5078025;28;20300;-67
2022/10/03 06:39:35;;;;;;;1.38;1.25;;;;;;;23.24;82.35;151881.91;5127899;28;20576;-69
2022/10/03 06:42:38;;;;;;;1.48;1.00;;;;;;;23.07;85.17;151838.53;5106686;27;20210;-67
2022/10/03 06:45:40;;;;;;;7.40;1.85;;;;;;;23.43;83.71;151929.09;5129955;28;20197;-67
2022/10/03 06:48:34;;;;;;;14.35;2.08;;;;;;;23.59;81.92;151970.03;5129815;27;20186;-68
2022/10/03 06:51:36;;;;;;;3.40;1.60;;;;;;;24.00;79.29;152073.41;5128788;27;20193;-69
2022/10/03 06:54:44;;;;;;;5.38;1.08;;;;;;;23.67;76.28;151991.72;5129675;27;20190;-68
2022/10/03 06:57:26;;;;;;;3.45;1.30;;;;;;;23.61;76.50;151975.09;5127066;27;20202;-66
2022/10/03 07:00:14;;;;;;;6.53;1.50;;;;;;;22.97;79.84;151814.28;5113175;27;20207;-67
2022/10/03 07:03:22;;;;;;;4.65;1.17;;;;;;;22.43;83.39;151676.47;5117557;28;20568;-67
2022/10/03 07:06:21;;;;;;;2.75;1.00;;;;;;;21.94;87.76;151554.06;5108844;28;20217;-67
2022/10/03 07:09:53;;;;;;;5.82;1.58;;;;;;;21.53;91.24;151450.78;5104791;28;20199;-68
2022/10/03 07:12:53;;;;;;;4.65;1.85;;;;;;;21.07;94.49;151334.78;5108614;28;20187;-68
2022/10/03 07:15:43;;;;;;;1.35;1.08;;;;;;;20.49;99.08;151189.59;5085853;28;20285;-68
2022/10/03 07:19:03;;;;;;;1.20;1.10;;;;;;;20.47;100.00;151183.19;5088219;28;20234;-67
2022/10/03 07:21:54;;;;;;;1.53;1.07;;;;;;;20.38;100.00;151160.28;5129082;27;20733;-67
2022/10/03 07:24:51;;;;;;;1.23;1.23;;;;;;;20.02;100.00;151071.13;5126493;28;20203;-67
2022/10/03 07:27:38;;;;;;;1.23;1.13;;;;;;;19.88;100.00;151034.19;5124358;27;20231;-66
2022/10/03 07:30:17;;;;;;;7.13;1.38;;;;;;;19.75;100.00;151001.09;5113324;27;20736;-66
2022/10/03 07:33:26;;;;;;;11.97;1.40;;;;;;;19.46;100.00;150929.81;5094394;28;20625;-67
2022/10/03 07:39:52;;;;;;;9.47;1.67;;;;;;;19.23;100.00;150871.22;5093694;28;20329;-67
2022/10/03 07:42:41;;;;;;;3.30;1.30;;;;;;;19.06;100.00;150827.97;5094633;28;20203;-65
2022/10/03 07:45:29;;;;;;;7.53;1.33;;;;;;;18.95;100.00;150801.28;5094141;28;20183;-67
2022/10/03 07:48:42;;;;;;;2.73;1.07;;;;;;;19.04;100.00;150822.91;5094412;28;20531;-67
2022/10/03 07:51:36;;;;;;;2.93;1.20;;;;;;;19.13;100.00;150845.81;5095757;28;20646;-66
2022/10/03 07:54:35;;;;;;;2.90;1.13;;;;;;;19.21;100.00;150864.88;5099489;28;20294;-67
2022/10/03 07:57:27;;;;;;;1.37;1.00;;;;;;;19.22;100.00;150868.72;5103897;28;20199;-66
2022/10/03 08:00:21;;;;;;;3.20;1.10;;;;;;;19.24;100.00;150873.78;5119464;28;20212;-64
2022/10/03 08:03:26;;;;;;;3.20;1.20;;;;;;;18.96;100.00;150802.56;5114724;28;20618;-66
2022/10/03 08:06:22;;;;;;;3.30;1.00;;;;;;;19.02;100.00;150817.78;5102538;28;20700;-61
2022/10/03 08:09:08;;;;;;;2.67;1.33;;;;;;;19.13;100.00;150845.81;5104897;28;20208;-61
2022/10/03 08:12:14;;;;;;;2.30;1.20;;;;;;;19.12;100.00;150844.53;5098732;28;20627;-61
2022/10/03 08:14:55;;;;;;;3.63;1.43;;;;;;;19.20;100.00;150863.59;5085706;28;20253;-60
2022/10/03 08:18:05;;;;;;;1.63;1.30;;;;;;;19.30;100.00;150889.06;5100648;28;20218;-61
2022/10/03 08:20:54;;;;;;;2.50;1.37;;;;;;;19.40;100.00;150914.50;5104741;28;20253;-61
2022/10/03 08:23:58;;;;;;;1.90;1.33;;;;;;;19.23;100.00;150871.22;5103358;28;20258;-63
2022/10/03 08:26:38;;;;;;;2.80;0.80;;;;;;;19.16;100.00;150854.72;5100697;28;20196;-63
2022/10/03 08:29:21;;;;;;;1.93;1.07;;;;;;;19.23;100.00;150869.94;5108239;28;20195;-65
2022/10/03 08:32:23;;;;;;;1.30;0.80;;;;;;;19.01;100.00;150815.28;5113881;28;20191;-64
2022/10/03 08:35:36;;;;;;;1.50;1.10;;;;;;;19.08;100.00;150833.06;5104372;28;20198;-64
2022/10/03 08:38:32;;;;;;;4.73;1.40;;;;;;;18.95;100.00;150800.00;5084153;28;20568;-65
2022/10/03 08:41:43;;;;;;;2.40;1.30;;;;;;;19.01;100.00;150816.50;5113844;28;20214;-65
2022/10/03 08:44:46;;;;;;;6.20;1.50;;;;;;;19.12;100.00;150843.25;5110582;28;20240;-65
2022/10/03 08:47:42;;;;;;;1.83;1.13;;;;;;;19.38;100.00;150908.16;5111849;28;20190;-64
2022/10/03 08:50:39;;;;;;;7.10;1.53;;;;;;;19.43;100.00;150922.22;5113273;28;20183;-65
2022/10/03 08:53:37;;;;;;;2.00;1.00;;;;;;;19.40;100.00;150913.22;5113937;28;20240;-64
2022/10/03 08:56:12;;;;;;;3.27;1.30;;;;;;;19.53;100.00;150947.63;5103110;28;20184;-65
2022/10/03 08:59:21;;;;;;;3.93;0.90;;;;;;;19.66;100.00;150979.44;5114181;28;20633;-64
2022/10/03 09:02:21;;;;;;;7.63;1.40;;;;;;;19.71;100.00;150992.19;5111190;28;20246;-66
2022/10/03 09:05:23;;;;;;;2.30;0.97;;;;;;;19.66;100.00;150979.44;5113889;28;20186;-65
2022/10/03 09:08:25;;;;;;;8.77;1.17;;;;;;;19.94;100.00;151050.72;5110727;28;20201;-65
2022/10/03 09:11:40;;;;;;;4.13;1.27;;;;;;;20.03;100.00;151073.63;5111302;28;20584;-65
2022/10/03 09:14:42;;;;;;;3.50;1.60;;;;;;;20.11;100.00;151092.78;5060733;28;20199;-66
2022/10/03 09:17:43;;;;;;;6.88;1.33;;;;;;;20.07;100.00;151082.59;5088655;28;20698;-64
2022/10/03 09:20:28;;;;;;;3.40;1.13;;;;;;;20.09;100.00;151087.66;5092996;28;20292;-64
2022/10/03 09:23:18;;;;;;;2.23;1.20;;;;;;;20.01;100.00;151067.28;5092959;28;20188;-64
2022/10/03 09:26:17;;;;;;;7.60;1.43;;;;;;;20.10;100.00;151088.94;5093256;28;20627;-65
2022/10/03 09:29:12;;;;;;;1.00;0.70;;;;;;;20.10;100.00;151088.94;5093338;28;20181;-63
2022/10/03 09:32:13;;;;;;;2.27;1.10;;;;;;;20.04;100.00;151074.91;5090771;28;20676;-65
2022/10/03 09:35:10;;;;;;;2.00;1.13;;;;;;;19.82;100.00;151020.16;5085727;28;20196;-65
2022/10/03 09:38:02;;;;;;;1.70;0.97;;;;;;;19.88;100.00;151034.19;5100548;28;20183;-65
2022/10/03 09:41:02;;;;;;;7.22;1.60;;;;;;;19.50;100.00;150938.72;5113340;28;20746;-64
2022/10/03 09:43:56;;;;;;;3.13;1.00;;;;;;;19.29;100.00;150885.22;5113236;28;20189;-65
2022/10/03 09:46:41;;;;;;;1.20;1.07;;;;;;;19.11;100.00;150841.97;5114214;28;20637;-64
2022/10/03 09:49:41;;;;;;;1.30;1.20;;;;;;;18.69;100.00;150735.13;5113562;28;20215;-65
2022/10/03 09:52:31;;;;;;;1.20;1.10;;;;;;;18.52;100.00;150691.81;5112990;28;20530;-65
2022/10/03 09:55:23;;;;;;;2.40;1.40;;;;;;;18.31;100.00;150639.69;5112367;28;20199;-64
2022/10/03 09:58:28;;;;;;;1.10;1.00;;;;;;;18.16;100.00;150602.81;5113254;28;20388;-64
2022/10/03 10:01:14;;;;;;;1.83;1.23;;;;;;;17.88;100.00;150531.63;5113112;28;20665;-66
2022/10/03 10:04:20;;;;;;;6.80;1.87;;;;;;;17.79;100.00;150508.72;5112652;28;20198;-65
2022/10/03 10:07:22;;;;;;;1.83;1.17;;;;;;;17.59;100.00;150459.19;5094313;28;20700;-65
2022/10/03 10:10:21;;;;;;;6.30;1.93;;;;;;;17.56;100.00;150451.53;5110339;28;20686;-65
2022/10/03 10:13:15;;;;;;;5.23;1.30;;;;;;;17.36;100.00;150400.66;5112514;28;20193;-66
2022/10/03 10:16:15;;;;;;;4.33;1.40;;;;;;;17.07;100.00;150328.25;5101945;28;20235;-64
2022/10/03 10:19:17;;;;;;;1.37;1.20;;;;;;;16.87;100.00;145297.38;5109848;28;20199;-64
2022/10/03 10:22:16;;;;;;;6.23;1.40;;;;;;;16.75;100.00;112018.81;5105805;28;20273;-65
2022/10/03 10:25:23;;;;;;;3.17;2.07;;;;;;;16.50;100.00;54767.13;5091439;28;20204;-64
2022/10/03 10:28:29;;;;;;;9.40;2.23;;;;;;;16.47;100.00;37103.69;5091531;28;20291;-64
2022/10/03 10:31:30;;;;;;;2.43;1.87;;;;;;;16.23;100.00;26995.41;5102801;28;20257;-64
2022/10/03 10:34:33;;;;;;;4.33;1.33;;;;;;;16.46;100.00;24081.00;5108657;28;20238;-64
2022/10/03 10:38:01;;;;;;;11.03;1.70;;;;;;;16.40;100.00;24078.53;5083230;28;20325;-65
2022/10/03 10:40:57;;;;;;;10.63;1.97;;;;;;;16.47;100.00;28633.44;5035418;28;20296;-64
2022/10/03 10:44:05;;;;;;;3.23;1.83;;;;;;;16.56;100.00;22461.00;5049331;28;20192;-66
2022/10/03 10:47:13;;;;;;;17.17;3.20;;;;;;;16.73;100.00;16300.59;5112011;28;20681;-65
2022/10/03 10:50:26;;;;;;;18.93;2.60;;;;;;;16.95;100.00;23127.03;5109611;28;20200;-65
2022/10/03 10:53:31;;;;;;;7.37;2.00;;;;;;;17.06;100.00;27361.44;5107189;28;20225;-63
2022/10/03 10:56:41;;;;;;;4.50;2.80;;;;;;;17.13;100.00;36167.06;5099249;28;20705;-64
2022/10/03 10:59:46;;;;;;;3.47;2.83;;;;;;;17.11;100.00;31924.84;5076935;28;20195;-65
2022/10/03 11:02:47;;;;;;;5.23;2.70;;;;;;;17.16;100.00;45977.06;5108936;28;20245;-65
2022/10/03 11:05:56;;;;;;;3.33;2.60;;;;;;;17.27;100.00;48606.72;5103959;28;20245;-66
2022/10/03 11:09:04;;;;;;;3.40;3.20;;;;;;;17.16;100.00;42704.53;5101313;28;20214;-65
2022/10/03 11:12:15;;;;;;;2.97;2.70;;;;;;;17.16;100.00;35842.53;5113505;28;20576;-65
2022/10/03 11:15:15;;;;;;;2.53;2.33;;;;;;;17.02;100.00;34202.56;5110589;28;20190;-66
2022/10/03 11:18:17;;;;;;;2.97;2.77;;;;;;;17.13;100.00;26713.59;5110805;27;20252;-64
2022/10/03 11:21:24;;;;;;;3.33;2.77;;;;;;;17.39;100.00;25423.69;5034368;28;20241;-66
2022/10/03 11:24:36;;;;;;;2.57;2.47;;;;;;;17.54;100.00;34234.03;5113974;28;20187;-64
2022/10/03 11:27:36;;;;;;;2.70;2.60;;;;;;;17.67;100.00;37835.53;5066904;28;20286;-65
2022/10/03 11:30:41;;;;;;;4.07;2.67;;;;;;;17.64;100.00;31629.00;5062628;28;20192;-64
2022/10/03 11:33:51;;;;;;;2.47;2.37;;;;;;;17.77;100.00;37188.75;5094746;28;20194;-65
2022/10/03 11:37:06;;;;;;;2.90;2.63;;;;;;;17.75;100.00;46024.53;5102721;28;20186;-63
2022/10/03 11:39:45;;;;;;;2.43;2.33;;;;;;;17.79;100.00;44389.00;5113182;28;20195;-66
2022/10/03 11:42:26;;;;;;;2.80;2.53;;;;;;;17.98;100.00;48337.94;5095348;28;20634;-64
2022/10/03 11:44:58;;;;;;;2.50;2.40;;;;;;;18.05;100.00;48343.84;5094640;28;20245;-63
2022/10/03 11:47:51;;;;;;;3.80;2.70;;;;;;;18.16;100.00;47696.84;5094985;28;20200;-63
2022/10/03 11:50:35;;;;;;;3.43;2.50;;;;;;;18.12;100.00;38192.50;5094489;28;20185;-65
2022/10/03 11:53:19;;;;;;;3.03;2.80;;;;;;;18.06;100.00;34919.09;5094655;28;20276;-66
2022/10/03 11:55:52;;;;;;;2.63;2.17;;;;;;;18.04;100.00;36551.91;5093976;28;20287;-65
2022/10/03 11:58:33;;;;;;;5.50;2.97;;;;;;;18.10;100.00;35901.91;5094102;28;20642;-64
2022/10/03 12:01:18;;;;;;;5.63;2.87;;;;;;;18.15;100.00;42450.88;5094029;28;20208;-66
2022/10/03 12:03:53;;;;;;;8.90;2.90;;;;;;;18.09;100.00;47034.94;5094414;28;20188;-65
2022/10/03 12:09:43;;;;;;;10.73;3.27;;;;;;;18.47;100.00;84356.72;5097818;28;20514;-65
2022/10/03 12:12:26;;;;;;;9.27;3.60;;;;;;;18.52;100.00;94999.16;5102034;28;20226;-65
2022/10/03 12:14:59;;;;;;;6.17;2.87;;;;;;;18.61;100.00;110027.13;5105573;28;20214;-65
2022/10/03 12:17:31;;;;;;;5.27;2.30;;;;;;;18.70;100.00;126131.94;5096608;28;20653;-65
2022/10/03 12:20:09;;;;;;;10.17;2.80;;;;;;;18.75;100.00;137832.81;5114063;28;20650;-65
2022/10/03 12:22:48;;;;;;;7.77;2.63;;;;;;;18.78;100.00;148403.81;5113843;28;20194;-65
2022/10/03 12:25:22;;;;;;;16.93;3.77;;;;;;;18.81;100.00;138307.66;5107606;28;20208;-67
2022/10/03 12:28:06;;;;;;;5.50;3.10;;;;;;;18.82;100.00;133894.00;5109372;28;20211;-68
2022/10/03 12:30:45;;;;;;;6.33;2.47;;;;;;;18.84;100.00;150772.03;5114260;28;20215;-65
2022/10/03 12:33:28;;;;;;;7.37;2.53;;;;;;;18.73;100.00;150745.28;5114191;28;20244;-64
2022/10/03 12:36:04;;;;;;;7.67;2.40;;;;;;;18.77;100.00;150754.19;5114146;28;20553;-65
2022/10/03 12:38:56;;;;;;;7.33;2.20;;;;;;;18.65;100.00;150726.22;5114208;28;20179;-66
2022/10/03 12:41:47;;;;;;;10.40;2.27;;;;;;;18.69;100.00;150736.41;5113510;28;20202;-64
2022/10/03 12:44:30;;;;;;;5.03;1.90;;;;;;;18.60;100.00;150713.50;5109189;28;20203;-65
2022/10/03 12:47:13;;;;;;;9.00;1.90;;;;;;;18.47;100.00;150679.09;5109948;28;20230;-64
2022/10/03 12:49:53;;;;;;;2.07;1.97;;;;;;;18.28;100.00;150632.06;5106405;28;20198;-64
2022/10/03 12:52:27;;;;;;;1.60;1.50;;;;;;;18.09;100.00;150583.75;5113957;28;20216;-64
2022/10/03 12:55:12;;;;;;;5.27;2.00;;;;;;;18.11;100.00;150588.84;5113604;28;20693;-65
2022/10/03 12:57:53;;;;;;;5.90;1.93;;;;;;;18.02;100.00;150565.97;5110621;28;20621;-64
2022/10/03 13:00:25;;;;;;;2.40;1.80;;;;;;;17.89;100.00;150532.91;5109484;28;20203;-65
2022/10/03 13:03:20;;;;;;;3.03;1.17;;;;;;;17.89;100.00;150532.91;5109713;28;20734;-65
2022/10/03 13:06:18;;;;;;;5.60;1.70;;;;;;;17.79;100.00;150508.72;5110976;28;20197;-65
2022/10/03 13:09:00;;;;;;;5.83;1.40;;;;;;;17.68;100.00;150482.06;5110642;28;20191;-64
2022/10/03 13:11:35;;;;;;;5.97;2.13;;;;;;;17.68;100.00;150480.78;5110458;28;20227;-65
2022/10/03 13:14:21;;;;;;;1.27;1.17;;;;;;;17.67;100.00;150479.50;5092701;28;20183;-64
2022/10/03 13:17:00;;;;;;;3.13;2.10;;;;;;;17.58;100.00;150455.34;5091390;28;20182;-65